Kochi Airport
RJOK : now visible

Airfield :











YOU CAN JOIN US ON...

 
LOGIN :

Register | Disclaimer

   EN    FR    IT 

 









Legend :    VFR   Marginal VFR   IFR   Intensive IFR   Very Intensive IFR
Visi :
Ceiling :
>= 8 km
>= 3000ft
5 to 8 km
1000 to 3000 ft
1500m to 5 km
500 to 1000 ft
800 to 1500m
200 to 500 ft
< 800m
< 200 ft
Symbols :   Thunderstorms  Fog  Heavy snow  Heavy precipitations  Wind > 20 kt







- Airport Elevation : 42 ft
- IATA code : KCZ


RJOK - Kochi

CURRENT METAR :
  • 220200Z 16009KT 9999 FEW025 SCT170 BKN/// 22/15 Q1014

EXPIRED METARs :
  • 220100Z VRB05KT 9999 FEW025 SCT160 BKN/// 22/16 Q1014
  • 220000Z 32005KT 9999 FEW020 BKN/// 23/14 Q1013

TAF TAF RJOK
Valid from the 22 at 00:00 until the 23 at 06:00 UTC


212305Z 2200/2306 35006KT 9999 FEW025 SCT060
BECMG 2200/2202 17007KT
BECMG 2209/2211 35006KT
BECMG 2300/2303 18008KT
RJJJ FIR / Asia



MET'MAP, your aeronautical weather chart ! - Copyright ORBIFLY December 2007 - Disclaimer

ORBIFLY MET'MAP TEAM :

Programming & Development : Alexandra Zaïnal
Concept & Development : Baudouin d'Aumeries
Co-Development & Prog : Marc-Olivier Méhu
Technical & hardware support : Manuel Goepfert

Contact : metmap@orbifly.com




SOURCES & CREDITS :

   NOAA       Earth
Advisory